Portland, Oregon
Traffic Map
Current Weather Conditions
Portland, Oregon
Overcast Haze
Overcast

Feels Like: 3°
Wind Chill: Ceiling: 400
Heat Index: Visibility: 3mi
Dew Point: Wind: 8mph
Humidity: 97% Direction: 110° (ESE)
Pressure: 30.02in Gusts: 0mph
Raw Report DataKPDX 270953Z 11007KT 3SM BR OVC004 06/06 A3002 RMK AO2 SFC VIS 9 SLP165 T00610056
Traffic Incident Summary
Active as of:
Severity:
Category:
InformationThere was an issue retrieving the traffic information for this location. Please try a different location or try again shortly.
Advertisements
Track Severe Weather on mobile